Time;durP1;ratioP1;P1;durP2;ratioP2;P2;SDS_P1;SDS_P2;PMS_P1;PMS_P2;Temp;Humidity;BMP_temperature;BMP_pressure;BME280_temperature;BME280_humidity;BME280_pressure;Samples;Min_cycle;Max_cycle;Signal;HPM_P1;HPM_P2
2022/09/07 00:00:36;;;;;;;0.20;0.20;;;17.90;99.90;;;;;;5071983;28;19916;-74
2022/09/07 00:03:02;;;;;;;1.38;0.70;;;17.90;99.90;;;;;;5070445;28;20043;-76
2022/09/07 00:05:30;;;;;;;;;;;17.80;99.90;;;;;;5073034;28;20493;-76
2022/09/07 00:07:56;;;;;;;0.55;0.55;;;17.80;99.90;;;;;;5071939;28;19923;-76
2022/09/07 00:10:24;;;;;;;0.20;0.20;;;17.80;99.90;;;;;;5033220;28;20343;-75
2022/09/07 00:12:50;;;;;;;0.40;0.40;;;17.70;99.90;;;;;;5062671;28;20469;-75
2022/09/07 00:15:16;;;;;;;0.30;0.30;;;17.60;99.90;;;;;;5063704;28;20079;-75
2022/09/07 00:17:42;;;;;;;0.28;0.28;;;17.60;99.90;;;;;;5055126;28;20040;-76
2022/09/07 00:20:08;;;;;;;;;;;17.60;99.90;;;;;;5056621;28;20048;-76
2022/09/07 00:22:34;;;;;;;0.27;0.27;;;17.50;99.90;;;;;;5069173;28;19939;-76
2022/09/07 00:25:00;;;;;;;;;;;17.60;99.90;;;;;;5072192;28;20481;-78
2022/09/07 00:27:26;;;;;;;0.60;0.60;;;17.50;99.90;;;;;;5070102;28;19924;-76
2022/09/07 00:29:52;;;;;;;3.00;1.08;;;17.50;99.90;;;;;;5044796;28;20052;-76
2022/09/07 00:32:18;;;;;;;;;;;17.60;99.90;;;;;;5074510;28;20040;-76
2022/09/07 00:34:43;;;;;;;0.47;0.47;;;17.50;99.90;;;;;;5065747;28;19969;-76
2022/09/07 00:37:09;;;;;;;;;;;17.50;99.90;;;;;;5070387;28;20048;-77
2022/09/07 00:39:36;;;;;;;0.30;0.30;;;17.50;99.90;;;;;;5055021;28;19925;-77
2022/09/07 00:42:02;;;;;;;0.38;0.38;;;17.50;99.90;;;;;;5071843;28;20474;-76
2022/09/07 00:44:47;;;;;;;;;;;17.40;99.90;;;;;;5054849;28;20062;-76
2022/09/07 00:47:12;;;;;;;0.85;0.85;;;17.40;99.90;;;;;;5075008;28;19920;-78
2022/09/07 00:49:40;;;;;;;;;;;17.30;99.90;;;;;;5081199;28;20044;-77
2022/09/07 00:52:11;;;;;;;0.40;0.40;;;17.30;99.90;;;;;;5071688;28;19968;-77
2022/09/07 00:54:42;;;;;;;0.40;0.40;;;17.30;99.90;;;;;;5054098;28;20052;-77
2022/09/07 00:57:09;;;;;;;0.60;0.60;;;17.30;99.90;;;;;;5070529;28;20068;-76
2022/09/07 00:59:45;;;;;;;0.75;0.45;;;17.30;99.90;;;;;;5072453;28;20444;-77
2022/09/07 01:02:14;;;;;;;0.70;0.70;;;17.30;99.90;;;;;;5054921;28;20064;-77
2022/09/07 01:04:40;;;;;;;1.08;0.98;;;17.30;99.90;;;;;;5034301;28;20037;-76
2022/09/07 01:07:07;;;;;;;0.28;0.28;;;17.30;99.90;;;;;;5046487;28;20048;-76
2022/09/07 01:09:34;;;;;;;0.28;0.28;;;17.30;99.90;;;;;;5050810;28;20090;-77
2022/09/07 01:12:03;;;;;;;0.20;0.20;;;17.30;99.90;;;;;;5070221;28;20099;-77
2022/09/07 01:14:33;;;;;;;0.25;0.25;;;17.20;99.90;;;;;;5082359;28;20146;-76
2022/09/07 01:17:47;;;;;;;0.40;0.40;;;17.20;99.90;;;;;;5064264;28;20051;-75
2022/09/07 01:20:30;;;;;;;0.40;0.40;;;17.20;99.90;;;;;;5054166;28;20566;-76
2022/09/07 01:23:26;;;;;;;0.30;0.30;;;17.20;99.90;;;;;;5068794;28;20047;-79
2022/09/07 01:26:19;;;;;;;0.30;0.30;;;17.20;99.90;;;;;;5081073;28;20525;-77
2022/09/07 01:28:48;;;;;;;0.65;0.65;;;17.10;99.90;;;;;;5059696;28;20563;-77
2022/09/07 01:31:42;;;;;;;0.43;0.43;;;17.10;99.90;;;;;;5070911;28;20066;-77
2022/09/07 01:34:21;;;;;;;0.35;0.35;;;17.00;99.90;;;;;;5064681;28;20045;-78
2022/09/07 01:37:26;;;;;;;0.38;0.38;;;16.90;99.90;;;;;;5064786;28;20045;-78
2022/09/07 01:40:09;;;;;;;1.70;1.60;;;16.90;99.90;;;;;;5052604;28;20076;-78
2022/09/07 01:43:02;;;;;;;0.50;0.50;;;16.90;99.90;;;;;;5068797;28;20526;-77
2022/09/07 01:45:33;;;;;;;3.05;1.98;;;16.90;99.90;;;;;;5067654;28;20044;-76
2022/09/07 01:48:04;;;;;;;1.17;1.00;;;16.90;99.90;;;;;;5070787;28;20485;-75
2022/09/07 01:50:48;;;;;;;0.57;0.52;;;16.80;99.90;;;;;;5050916;28;20048;-75
2022/09/07 01:53:35;;;;;;;0.57;0.57;;;16.90;99.90;;;;;;5025606;28;20044;-77
2022/09/07 01:56:07;;;;;;;0.70;0.70;;;16.80;99.90;;;;;;5068403;28;20044;-74
2022/09/07 01:59:01;;;;;;;0.95;0.90;;;16.80;99.90;;;;;;5067832;28;20052;-78
2022/09/07 02:02:09;;;;;;;0.70;0.70;;;16.90;99.90;;;;;;5057878;28;20044;-80
2022/09/07 02:04:38;;;;;;;;;;;16.90;99.90;;;;;;5055969;28;20127;-80
2022/09/07 02:07:23;;;;;;;2.58;1.85;;;16.90;99.90;;;;;;5077666;28;19996;-80
2022/09/07 02:09:59;;;;;;;0.50;0.50;;;16.90;99.90;;;;;;5070385;28;20131;-79
2022/09/07 02:12:25;;;;;;;;;;;16.90;99.90;;;;;;5072526;28;20059;-79
2022/09/07 02:15:01;;;;;;;1.02;0.95;;;16.90;99.90;;;;;;5074973;28;19931;-80
2022/09/07 02:17:37;;;;;;;;;;;16.90;99.90;;;;;;5071009;28;20371;-80
2022/09/07 02:20:18;;;;;;;0.50;0.50;;;16.80;99.90;;;;;;5069644;28;20015;-82
2022/09/07 02:22:52;;;;;;;0.60;0.60;;;16.70;99.90;;;;;;5067984;28;20045;-79
2022/09/07 02:25:25;;;;;;;0.30;0.30;;;16.70;99.90;;;;;;5086603;28;20036;-83
2022/09/07 02:27:56;;;;;;;1.00;1.00;;;16.70;99.90;;;;;;5050987;28;20123;-81
2022/09/07 02:30:21;;;;;;;0.50;0.50;;;16.70;99.90;;;;;;5069730;28;20076;-81
2022/09/07 02:32:48;;;;;;;0.52;0.52;;;16.70;99.90;;;;;;5068285;28;20113;-79
2022/09/07 02:35:21;;;;;;;0.40;0.40;;;16.70;99.90;;;;;;5069479;28;20032;-80
2022/09/07 02:37:51;;;;;;;0.40;0.40;;;16.70;99.90;;;;;;5066494;28;20036;-78
2022/09/07 02:40:18;;;;;;;0.52;0.52;;;16.60;99.90;;;;;;5077446;28;20063;-79
2022/09/07 02:42:46;;;;;;;0.38;0.38;;;16.60;99.90;;;;;;5063853;28;20044;-78
2022/09/07 02:45:14;;;;;;;0.50;0.50;;;16.50;99.90;;;;;;5069510;28;20094;-78
2022/09/07 02:48:06;;;;;;;0.38;0.38;;;16.50;99.90;;;;;;5054720;28;20102;-79
2022/09/07 02:50:50;;;;;;;0.50;0.45;;;16.40;99.90;;;;;;5068946;28;20040;-80
2022/09/07 02:53:22;;;;;;;0.50;0.50;;;16.40;99.90;;;;;;5067617;28;20363;-81
2022/09/07 02:55:50;;;;;;;0.68;0.68;;;16.40;99.90;;;;;;5052213;28;20487;-79
2022/09/07 02:58:25;;;;;;;0.40;0.40;;;16.40;99.90;;;;;;5056523;28;20044;-77
2022/09/07 03:01:02;;;;;;;0.55;0.55;;;16.40;99.90;;;;;;5067892;28;20040;-77
2022/09/07 03:04:07;;;;;;;0.95;0.82;;;16.30;99.90;;;;;;5070613;28;20060;-77
2022/09/07 03:06:44;;;;;;;0.45;0.45;;;16.30;99.90;;;;;;5048953;28;20117;-78
2022/09/07 03:09:18;;;;;;;0.50;0.50;;;16.30;99.90;;;;;;5047883;28;20041;-80
2022/09/07 03:11:49;;;;;;;0.98;0.50;;;16.30;99.90;;;;;;5069884;28;20045;-80
2022/09/07 03:14:22;;;;;;;0.30;0.30;;;16.30;99.90;;;;;;5057491;28;20045;-79
2022/09/07 03:16:56;;;;;;;0.40;0.40;;;16.20;99.90;;;;;;5073549;28;20120;-78
2022/09/07 03:19:22;;;;;;;0.28;0.28;;;16.20;99.90;;;;;;5074307;28;20036;-80
2022/09/07 03:21:48;;;;;;;0.30;0.30;;;16.20;99.90;;;;;;5071650;28;20488;-80
2022/09/07 03:24:14;;;;;;;0.60;0.60;;;16.20;99.90;;;;;;5071303;28;20036;-78
2022/09/07 03:26:42;;;;;;;;;;;16.30;99.90;;;;;;5056800;28;20082;-78
2022/09/07 03:29:09;;;;;;;0.30;0.30;;;16.30;99.90;;;;;;5058405;28;19962;-77
2022/09/07 03:31:35;;;;;;;0.40;0.40;;;16.30;99.90;;;;;;5048422;28;20040;-77
2022/09/07 03:34:03;;;;;;;0.30;0.30;;;16.20;99.90;;;;;;5066136;28;20040;-76
2022/09/07 03:36:30;;;;;;;0.52;0.52;;;16.20;99.90;;;;;;5052500;28;20123;-77
2022/09/07 03:38:58;;;;;;;0.40;0.40;;;16.20;99.90;;;;;;5067430;28;20044;-78
2022/09/07 03:41:24;;;;;;;0.35;0.35;;;16.20;99.90;;;;;;5059015;28;20090;-78
2022/09/07 03:43:50;;;;;;;0.20;0.20;;;16.20;99.90;;;;;;5071511;28;20392;-78
2022/09/07 03:46:18;;;;;;;;;;;16.20;99.90;;;;;;5068964;28;20052;-80
2022/09/07 03:48:46;;;;;;;0.50;0.50;;;16.20;99.90;;;;;;5071158;28;19924;-78
2022/09/07 03:51:15;;;;;;;0.30;0.30;;;16.20;99.90;;;;;;5071935;28;20048;-79
2022/09/07 03:53:43;;;;;;;0.30;0.30;;;16.20;99.90;;;;;;5054497;28;20381;-78
2022/09/07 03:56:22;;;;;;;0.20;0.20;;;16.20;99.90;;;;;;5071842;28;20074;-79
2022/09/07 03:58:54;;;;;;;0.30;0.30;;;16.10;99.90;;;;;;5049376;28;20194;-76
2022/09/07 04:01:22;;;;;;;0.20;0.20;;;16.10;99.90;;;;;;5043597;28;20047;-77
2022/09/07 04:03:49;;;;;;;0.40;0.40;;;16.10;99.90;;;;;;5074336;28;20047;-78
2022/09/07 04:06:15;;;;;;;0.40;0.40;;;16.10;99.90;;;;;;5078322;28;20044;-78
2022/09/07 04:08:42;;;;;;;0.30;0.30;;;16.10;99.90;;;;;;5059574;28;20396;-78
2022/09/07 04:11:14;;;;;;;0.20;0.20;;;16.10;99.90;;;;;;5091627;28;20557;-78
2022/09/07 04:13:40;;;;;;;0.30;0.30;;;16.00;99.90;;;;;;5060749;28;20035;-77
2022/09/07 04:16:13;;;;;;;0.40;0.40;;;15.90;99.90;;;;;;5054093;28;20560;-78
2022/09/07 04:18:42;;;;;;;0.25;0.25;;;15.90;99.90;;;;;;5067734;28;20097;-78
2022/09/07 04:21:08;;;;;;;0.30;0.30;;;15.90;99.90;;;;;;5043378;28;20033;-78
2022/09/07 04:23:35;;;;;;;;;;;15.90;99.90;;;;;;5087928;28;20041;-75
2022/09/07 04:26:01;;;;;;;;;;;15.90;99.90;;;;;;5073787;28;19951;-80
2022/09/07 04:28:26;;;;;;;0.40;0.40;;;15.90;99.90;;;;;;5083044;28;20400;-76
2022/09/07 04:31:01;;;;;;;0.22;0.22;;;15.80;99.90;;;;;;5060316;28;20094;-75
2022/09/07 04:33:30;;;;;;;0.28;0.28;;;15.80;99.90;;;;;;5055575;28;20024;-78
2022/09/07 04:35:59;;;;;;;0.30;0.30;;;15.80;99.90;;;;;;5053208;28;20136;-76
2022/09/07 04:38:25;;;;;;;0.52;0.52;;;15.80;99.90;;;;;;5073078;28;20076;-77
2022/09/07 04:41:01;;;;;;;0.40;0.40;;;15.80;99.90;;;;;;5063821;28;20107;-77
2022/09/07 04:43:37;;;;;;;0.50;0.50;;;15.80;99.90;;;;;;5065510;28;20076;-76
2022/09/07 04:46:18;;;;;;;0.30;0.30;;;15.90;99.90;;;;;;5071639;28;20098;-76
2022/09/07 04:48:47;;;;;;;0.20;0.20;;;15.80;99.90;;;;;;5071084;28;20049;-79
2022/09/07 04:51:14;;;;;;;0.50;0.50;;;15.80;99.90;;;;;;5068047;28;20037;-77
2022/09/07 04:53:39;;;;;;;0.43;0.43;;;15.80;99.90;;;;;;5061805;28;20047;-75
2022/09/07 04:56:05;;;;;;;;;;;15.90;99.90;;;;;;5073845;28;20056;-79
2022/09/07 04:58:32;;;;;;;0.30;0.30;;;15.80;99.90;;;;;;5066221;28;19963;-77
2022/09/07 05:01:02;;;;;;;0.30;0.30;;;15.90;99.90;;;;;;5072672;28;20032;-77
2022/09/07 05:03:35;;;;;;;1.10;0.45;;;15.90;99.90;;;;;;5049517;28;20102;-76
2022/09/07 05:06:05;;;;;;;0.30;0.30;;;15.90;99.90;;;;;;5059831;28;20055;-77
2022/09/07 05:08:38;;;;;;;0.50;0.50;;;15.90;99.90;;;;;;5070517;28;20048;-75
2022/09/07 05:11:05;;;;;;;0.20;0.20;;;15.90;99.90;;;;;;5060189;28;20044;-76
2022/09/07 05:13:31;;;;;;;;;;;15.90;99.90;;;;;;5050844;28;20059;-76
2022/09/07 05:15:58;;;;;;;0.63;0.38;;;15.90;99.90;;;;;;5072357;28;19963;-78
2022/09/07 05:18:25;;;;;;;0.30;0.30;;;15.90;99.90;;;;;;5056783;28;20437;-77
2022/09/07 05:20:51;;;;;;;0.20;0.20;;;15.90;99.90;;;;;;5075174;28;20067;-78
2022/09/07 05:23:17;;;;;;;;;;;15.90;99.90;;;;;;5065198;28;20750;-81
2022/09/07 05:25:45;;;;;;;0.63;0.63;;;15.90;99.90;;;;;;5076549;28;20406;-78
2022/09/07 05:28:13;;;;;;;0.30;0.30;;;16.00;99.90;;;;;;5067352;28;20492;-78
2022/09/07 05:30:39;;;;;;;;;;;16.00;99.90;;;;;;5069583;28;20048;-75
2022/09/07 05:33:07;;;;;;;0.30;0.30;;;16.10;99.90;;;;;;5066857;28;19916;-78
2022/09/07 05:35:33;;;;;;;0.30;0.30;;;16.10;99.90;;;;;;5064661;28;20049;-78
2022/09/07 05:37:59;;;;;;;0.30;0.30;;;16.10;99.90;;;;;;5062180;28;20036;-79
2022/09/07 05:40:31;;;;;;;0.73;0.73;;;16.20;99.90;;;;;;5032700;28;20064;-78
2022/09/07 05:42:58;;;;;;;0.28;0.28;;;16.20;99.90;;;;;;5059444;28;20063;-79
2022/09/07 05:45:23;;;;;;;0.20;0.20;;;16.20;99.90;;;;;;5063321;28;20040;-79
2022/09/07 05:47:55;;;;;;;0.30;0.30;;;16.30;99.90;;;;;;5062649;28;20044;-78
2022/09/07 05:50:23;;;;;;;0.40;0.40;;;16.30;99.90;;;;;;5065963;28;20064;-77
2022/09/07 05:52:49;;;;;;;;;;;16.30;99.90;;;;;;5046392;28;20478;-76
2022/09/07 05:55:16;;;;;;;0.40;0.40;;;16.40;99.90;;;;;;5055125;28;19916;-78
2022/09/07 05:57:46;;;;;;;0.82;0.82;;;16.40;99.90;;;;;;5065736;28;20052;-78
2022/09/07 06:00:13;;;;;;;0.20;0.20;;;16.40;99.90;;;;;;5055063;28;20048;-79
2022/09/07 06:02:39;;;;;;;0.47;0.47;;;16.40;99.90;;;;;;5054495;28;20060;-77
2022/09/07 06:05:05;;;;;;;0.30;0.30;;;16.50;99.90;;;;;;5053722;28;20049;-78
2022/09/07 06:07:31;;;;;;;0.40;0.40;;;16.50;99.90;;;;;;5073597;28;20103;-80
2022/09/07 06:09:56;;;;;;;;;;;16.50;99.90;;;;;;5051249;28;20040;-80
2022/09/07 06:12:24;;;;;;;0.20;0.20;;;16.50;99.90;;;;;;5072881;28;20422;-80
2022/09/07 06:14:50;;;;;;;1.88;0.82;;;16.60;99.90;;;;;;5033965;28;20418;-77
2022/09/07 06:17:15;;;;;;;;;;;16.60;99.90;;;;;;5064290;28;20041;-79
2022/09/07 06:19:41;;;;;;;0.90;0.90;;;16.70;99.90;;;;;;5066824;28;20416;-78
2022/09/07 06:22:07;;;;;;;;;;;16.70;99.90;;;;;;5061492;28;20036;-80
2022/09/07 06:24:32;;;;;;;1.33;0.63;;;16.80;99.90;;;;;;5052631;28;19946;-78
2022/09/07 06:26:58;;;;;;;;;;;16.80;99.90;;;;;;5069863;28;20127;-79
2022/09/07 06:29:24;;;;;;;2.50;1.00;;;16.80;99.90;;;;;;5068311;28;20309;-79
2022/09/07 06:31:49;;;;;;;;;;;16.90;99.90;;;;;;5052596;28;20114;-80
2022/09/07 06:34:16;;;;;;;0.70;0.40;;;16.90;99.90;;;;;;5053717;28;20411;-79
2022/09/07 06:36:42;;;;;;;0.38;0.38;;;17.00;99.90;;;;;;5068811;28;20045;-80
2022/09/07 06:39:07;;;;;;;;;;;17.00;99.90;;;;;;5052228;28;20041;-79
2022/09/07 06:41:34;;;;;;;0.30;0.30;;;17.10;99.90;;;;;;5069219;28;19916;-80
2022/09/07 06:43:59;;;;;;;0.60;0.60;;;17.10;99.90;;;;;;5066492;28;20040;-80
2022/09/07 06:46:25;;;;;;;;;;;17.10;99.90;;;;;;5068229;28;20036;-79
2022/09/07 06:48:54;;;;;;;0.82;0.82;;;17.10;99.90;;;;;;5046418;28;19998;-78
2022/09/07 06:51:25;;;;;;;0.70;0.70;;;17.10;99.90;;;;;;5062606;28;20367;-80
2022/09/07 06:53:56;;;;;;;0.25;0.25;;;17.10;99.90;;;;;;5085918;28;20090;-79
2022/09/07 06:56:23;;;;;;;0.52;0.52;;;17.10;99.90;;;;;;5061276;28;20390;-77
2022/09/07 06:58:53;;;;;;;0.38;0.32;;;17.10;99.90;;;;;;5069479;28;20100;-78
2022/09/07 07:01:19;;;;;;;0.52;0.52;;;17.00;99.90;;;;;;5060681;28;20052;-79
2022/09/07 07:03:45;;;;;;;;;;;17.00;99.90;;;;;;5056210;28;20036;-79
2022/09/07 07:06:12;;;;;;;0.40;0.40;;;17.00;99.90;;;;;;5056278;28;20007;-76
2022/09/07 07:08:38;;;;;;;0.38;0.38;;;17.00;99.90;;;;;;5072183;28;20043;-78
2022/09/07 07:11:13;;;;;;;0.35;0.35;;;16.90;99.90;;;;;;5068511;28;20048;-81
2022/09/07 07:13:39;;;;;;;0.70;0.65;;;17.00;99.90;;;;;;5067862;28;20040;-78
2022/09/07 07:16:14;;;;;;;0.68;0.52;;;17.00;99.90;;;;;;5067744;28;20036;-78
2022/09/07 07:18:42;;;;;;;0.20;0.20;;;17.20;99.90;;;;;;5055074;28;20036;-78
2022/09/07 07:21:12;;;;;;;0.20;0.20;;;17.20;99.90;;;;;;5061432;28;20054;-78
2022/09/07 07:23:39;;;;;;;0.47;0.47;;;17.40;99.90;;;;;;5068569;28;20036;-78
2022/09/07 07:26:19;;;;;;;0.85;0.85;;;17.50;99.90;;;;;;5048858;28;20266;-77
2022/09/07 07:28:55;;;;;;;0.25;0.25;;;17.60;99.90;;;;;;5056049;28;20170;-77
2022/09/07 07:31:26;;;;;;;0.45;0.45;;;17.70;99.90;;;;;;5056367;28;20052;-79
2022/09/07 07:34:12;;;;;;;0.40;0.40;;;17.70;99.90;;;;;;5070779;28;20051;-77
2022/09/07 07:36:38;;;;;;;0.55;0.55;;;17.70;99.90;;;;;;5070047;28;20079;-80
2022/09/07 07:39:04;;;;;;;0.30;0.30;;;17.80;99.90;;;;;;5068109;28;20040;-77
2022/09/07 07:41:30;;;;;;;;;;;17.80;99.90;;;;;;5062852;28;20386;-78
2022/09/07 07:43:58;;;;;;;0.40;0.40;;;17.80;99.90;;;;;;5050924;28;19928;-79
2022/09/07 07:46:25;;;;;;;0.30;0.30;;;17.80;99.90;;;;;;5074813;28;20102;-80
2022/09/07 07:48:51;;;;;;;0.40;0.40;;;17.80;99.90;;;;;;5068111;28;20044;-78
2022/09/07 07:51:17;;;;;;;0.93;0.93;;;17.70;99.90;;;;;;5072025;28;20055;-78
2022/09/07 07:53:44;;;;;;;;;;;17.70;99.90;;;;;;5070221;28;20037;-79
2022/09/07 07:56:18;;;;;;;1.45;0.70;;;17.70;99.90;;;;;;5067447;28;19928;-81
2022/09/07 07:58:45;;;;;;;;;;;17.80;99.90;;;;;;5058278;28;20048;-82
2022/09/07 08:01:14;;;;;;;0.93;0.93;;;17.90;99.90;;;;;;5068812;28;19917;-80
2022/09/07 08:03:42;;;;;;;0.73;0.73;;;18.00;99.90;;;;;;5067875;28;20049;-81
2022/09/07 08:06:16;;;;;;;1.25;1.15;;;18.10;99.90;;;;;;5055060;28;20048;-79
2022/09/07 08:08:44;;;;;;;0.77;0.77;;;18.10;99.90;;;;;;5072212;28;20054;-79
2022/09/07 08:11:16;;;;;;;0.40;0.40;;;18.10;99.90;;;;;;5046281;28;20032;-80
2022/09/07 08:13:45;;;;;;;0.75;0.60;;;;;;;;;;5077695;28;20550;-77
2022/09/07 08:16:11;;;;;;;0.85;0.65;;;18.40;99.90;;;;;;5091528;28;20110;-77
2022/09/07 08:18:38;;;;;;;1.08;1.08;;;18.50;99.90;;;;;;5056696;28;20059;-81
2022/09/07 08:21:10;;;;;;;1.20;0.50;;;18.60;99.90;;;;;;5074210;28;20052;-79
2022/09/07 08:23:38;;;;;;;0.57;0.40;;;18.60;99.90;;;;;;5055305;28;20041;-80
2022/09/07 08:26:05;;;;;;;1.52;1.25;;;18.60;99.90;;;;;;5072689;28;20051;-80
2022/09/07 08:28:35;;;;;;;0.98;0.65;;;18.80;99.90;;;;;;5055366;28;20094;-81
2022/09/07 08:31:12;;;;;;;0.40;0.40;;;18.90;99.90;;;;;;5055251;28;20128;-80
2022/09/07 08:33:38;;;;;;;0.70;0.70;;;19.00;99.90;;;;;;5053900;28;20454;-79
2022/09/07 08:36:12;;;;;;;0.75;0.75;;;19.20;99.90;;;;;;5069592;28;20061;-81
2022/09/07 08:38:39;;;;;;;1.90;1.70;;;19.30;99.90;;;;;;5072331;28;20382;-79
2022/09/07 08:41:45;;;;;;;0.68;0.50;;;19.50;99.90;;;;;;5071579;28;20040;-82
2022/09/07 08:44:17;;;;;;;0.47;0.47;;;19.60;99.90;;;;;;5071089;28;20063;-80
2022/09/07 08:46:59;;;;;;;0.60;0.60;;;19.70;99.90;;;;;;5072693;28;20051;-77
2022/09/07 08:50:03;;;;;;;0.68;0.68;;;19.80;99.90;;;;;;5039964;28;20426;-77
2022/09/07 08:52:47;;;;;;;0.95;0.93;;;19.80;99.90;;;;;;5071466;28;20052;-82
2022/09/07 08:55:33;;;;;;;0.73;0.73;;;19.80;99.90;;;;;;5072358;28;20044;-79
2022/09/07 08:58:24;;;;;;;3.30;1.48;;;19.60;99.90;;;;;;5071094;28;20406;-82
2022/09/07 09:00:50;;;;;;;2.92;1.10;;;19.50;99.90;;;;;;5055259;28;20048;-81
2022/09/07 09:03:20;;;;;;;0.80;0.80;;;19.30;99.90;;;;;;5078535;28;20040;-81
2022/09/07 09:06:24;;;;;;;1.27;1.00;;;19.30;99.90;;;;;;5091681;28;20043;-80
2022/09/07 09:09:23;;;;;;;0.77;0.77;;;19.20;99.90;;;;;;5065473;28;20047;-79
2022/09/07 09:12:16;;;;;;;2.78;0.93;;;19.10;99.90;;;;;;5064289;28;20083;-81
2022/09/07 09:15:03;;;;;;;1.35;1.23;;;19.10;99.90;;;;;;5068598;28;20059;-78
2022/09/07 09:17:53;;;;;;;0.40;0.40;;;19.20;99.90;;;;;;5054760;28;20504;-78
2022/09/07 09:20:38;;;;;;;0.90;0.52;;;19.50;99.90;;;;;;5063184;28;20115;-80
2022/09/07 09:23:16;;;;;;;1.63;1.35;;;20.00;99.90;;;;;;5069348;28;20047;-79
2022/09/07 09:25:53;;;;;;;0.82;0.82;;;;;;;;;;5078957;28;20060;-76
2022/09/07 09:28:19;;;;;;;1.23;1.13;;;20.50;99.90;;;;;;5065049;28;20046;-81
2022/09/07 09:30:46;;;;;;;2.50;1.77;;;20.80;99.90;;;;;;5083544;28;20083;-79
2022/09/07 09:33:22;;;;;;;0.60;0.60;;;21.00;99.90;;;;;;5062804;28;20488;-81
2022/09/07 09:35:54;;;;;;;1.52;1.40;;;21.20;99.90;;;;;;5071761;28;20433;-83
2022/09/07 09:38:34;;;;;;;0.90;0.88;;;21.30;99.90;;;;;;5062116;28;20048;-83
2022/09/07 09:41:12;;;;;;;1.42;0.98;;;21.30;99.90;;;;;;5084374;28;20035;-80
2022/09/07 09:43:51;;;;;;;1.65;1.48;;;21.20;99.90;;;;;;5083835;28;20535;-80
2022/09/07 09:46:36;;;;;;;0.85;0.82;;;21.20;99.90;;;;;;5044737;28;20521;-80
2022/09/07 09:49:11;;;;;;;1.75;1.48;;;21.30;99.90;;;;;;5076258;28;20047;-80
2022/09/07 09:51:43;;;;;;;2.67;2.28;;;21.40;99.90;;;;;;5090681;28;20375;-79
2022/09/07 09:54:31;;;;;;;0.40;0.40;;;21.50;99.90;;;;;;5090629;28;20040;-79
2022/09/07 09:56:57;;;;;;;0.30;0.30;;;21.50;99.90;;;;;;5053383;28;20085;-81
2022/09/07 09:59:28;;;;;;;2.92;0.80;;;21.50;99.90;;;;;;5070113;28;20062;-78
2022/09/07 10:01:54;;;;;;;0.55;0.55;;;21.50;99.90;;;;;;5059380;28;20379;-80
2022/09/07 10:04:23;;;;;;;1.33;1.23;;;21.50;99.90;;;;;;5068040;28;20155;-80
2022/09/07 10:06:54;;;;;;;1.20;1.15;;;21.50;99.90;;;;;;5075732;28;20121;-82
2022/09/07 10:09:27;;;;;;;0.50;0.50;;;21.50;99.90;;;;;;5049748;28;20049;-81
2022/09/07 10:11:58;;;;;;;0.52;0.52;;;21.50;99.90;;;;;;5064788;28;20482;-80
2022/09/07 10:14:45;;;;;;;0.73;0.73;;;21.50;99.90;;;;;;5074550;28;20040;-77
2022/09/07 10:17:30;;;;;;;1.65;1.17;;;21.50;99.90;;;;;;5082293;28;20067;-82
2022/09/07 10:20:11;;;;;;;0.82;0.82;;;21.40;99.90;;;;;;5071245;28;20043;-78
2022/09/07 10:22:45;;;;;;;2.10;1.95;;;21.50;99.90;;;;;;5077067;28;20062;-78
2022/09/07 10:25:38;;;;;;;1.80;1.70;;;21.60;99.90;;;;;;5068578;28;20116;-80
2022/09/07 10:28:17;;;;;;;0.70;0.70;;;21.80;99.90;;;;;;5073883;28;20052;-78
2022/09/07 10:31:30;;;;;;;1.80;1.70;;;21.80;99.90;;;;;;5082807;28;20056;-79
2022/09/07 10:34:14;;;;;;;0.90;0.90;;;22.20;99.90;;;;;;5076744;28;20040;-81
2022/09/07 10:37:00;;;;;;;0.40;0.40;;;22.50;99.90;;;;;;5057437;28;20051;-81
2022/09/07 10:39:40;;;;;;;1.58;1.50;;;22.80;99.90;;;;;;5076066;28;20047;-79
2022/09/07 10:42:08;;;;;;;0.52;0.52;;;23.10;99.90;;;;;;5075047;28;20549;-79
2022/09/07 10:44:59;;;;;;;0.57;0.50;;;23.20;99.90;;;;;;5060712;28;20433;-80
2022/09/07 10:48:00;;;;;;;0.60;0.60;;;23.10;99.90;;;;;;5066165;28;20513;-80
2022/09/07 10:50:49;;;;;;;0.40;0.40;;;23.00;99.90;;;;;;5079553;28;20041;-79
2022/09/07 10:53:21;;;;;;;0.30;0.30;;;22.70;99.90;;;;;;5076702;28;20039;-80
2022/09/07 10:56:09;;;;;;;0.45;0.45;;;22.60;99.90;;;;;;5064191;28;20130;-81
2022/09/07 10:59:00;;;;;;;0.73;0.73;;;22.50;99.90;;;;;;5071440;28;20049;-80
2022/09/07 11:01:53;;;;;;;1.23;1.13;;;22.70;99.90;;;;;;5060425;28;20048;-78
2022/09/07 11:04:43;;;;;;;0.30;0.30;;;22.90;99.90;;;;;;5058580;28;20041;-79
2022/09/07 11:07:27;;;;;;;0.82;0.82;;;23.00;99.90;;;;;;5061646;28;20169;-81
2022/09/07 11:10:23;;;;;;;0.85;0.85;;;23.20;99.90;;;;;;5077810;28;20104;-77
2022/09/07 11:12:50;;;;;;;;;;;23.40;99.90;;;;;;5072661;28;20048;-80
2022/09/07 11:15:31;;;;;;;0.30;0.30;;;23.50;99.90;;;;;;5077617;28;19963;-77
2022/09/07 11:18:07;;;;;;;0.85;0.85;;;23.70;99.90;;;;;;5088438;28;20117;-78
2022/09/07 11:20:57;;;;;;;0.50;0.50;;;23.90;99.90;;;;;;5079047;28;20040;-77
2022/09/07 11:23:30;;;;;;;0.85;0.60;;;;;;;;;;5079859;28;20039;-76
2022/09/07 11:26:10;;;;;;;0.43;0.43;;;;;;;;;;5062727;28;20048;-76
2022/09/07 11:28:55;;;;;;;0.50;0.50;;;;;;;;;;5062033;28;20500;-77
2022/09/07 11:31:28;;;;;;;1.33;0.60;;;;;;;;;;5056223;28;20040;-80
2022/09/07 11:33:59;;;;;;;0.95;0.95;;;;;;;;;;5083197;28;20048;-76
2022/09/07 11:36:28;;;;;;;1.00;1.00;;;;;;;;;;5083345;28;20098;-75
2022/09/07 11:38:57;;;;;;;0.40;0.40;;;;;;;;;;5058810;28;20037;-79
2022/09/07 11:41:31;;;;;;;0.85;0.85;;;;;;;;;;5065439;28;20044;-78
2022/09/07 11:44:01;;;;;;;0.30;0.30;;;;;;;;;;5052601;28;20055;-77
2022/09/07 11:46:48;;;;;;;0.73;0.73;;;;;;;;;;5062491;28;20499;-79
2022/09/07 11:49:14;;;;;;;0.60;0.60;;;;;;;;;;5067184;28;20431;-78
2022/09/07 11:51:51;;;;;;;0.75;0.75;;;;;;;;;;5078599;28;20052;-78
2022/09/07 11:54:43;;;;;;;0.68;0.68;;;;;;;;;;5070261;28;20076;-77
2022/09/07 11:57:26;;;;;;;0.38;0.38;;;;;;;;;;5064936;28;20044;-79
2022/09/07 11:59:55;;;;;;;0.77;0.77;;;;;;;;;;5082388;28;20428;-77
2022/09/07 12:02:36;;;;;;;0.30;0.30;;;;;;;;;;5070326;28;20029;-78
2022/09/07 12:05:07;;;;;;;0.63;0.63;;;;;;;;;;5080320;28;20466;-76
2022/09/07 12:07:36;;;;;;;0.95;0.95;;;;;;;;;;5070068;28;20549;-79
2022/09/07 12:10:26;;;;;;;0.40;0.40;;;;;;;;;;5073297;28;20443;-76
2022/09/07 12:13:21;;;;;;;0.50;0.50;;;;;;;;;;5064361;28;20063;-78
2022/09/07 12:15:56;;;;;;;0.40;0.40;;;;;;;;;;5069833;28;20044;-80
2022/09/07 12:18:38;;;;;;;0.63;0.60;;;;;;;;;;5055648;28;20063;-79
2022/09/07 12:21:04;;;;;;;0.60;0.60;;;;;;;;;;5058627;28;20474;-79
2022/09/07 12:23:31;;;;;;;0.68;0.68;;;;;;;;;;5074749;28;20119;-76
2022/09/07 12:26:16;;;;;;;0.30;0.30;;;;;;;;;;5053825;28;20481;-77
2022/09/07 12:28:45;;;;;;;0.40;0.40;;;;;;;;;;5067673;28;20386;-78
2022/09/07 12:31:11;;;;;;;0.30;0.30;;;;;;;;;;5087460;28;20036;-76
2022/09/07 12:33:40;;;;;;;0.30;0.30;;;;;;;;;;5081839;28;20056;-79
2022/09/07 12:36:25;;;;;;;0.20;0.20;;;;;;;;;;5068771;28;20037;-81
2022/09/07 12:38:58;;;;;;;0.73;0.73;;;;;;;;;;5064423;28;20040;-78
2022/09/07 12:41:38;;;;;;;0.68;0.68;;;;;;;;;;5072574;28;20056;-78
2022/09/07 12:44:10;;;;;;;;;;;;;;;;;;5066269;28;20390;-76
2022/09/07 12:46:40;;;;;;;0.40;0.40;;;;;;;;;;5078669;28;19920;-79
2022/09/07 12:49:09;;;;;;;0.30;0.30;;;;;;;;;;5044539;28;20143;-80
2022/09/07 12:51:38;;;;;;;0.40;0.40;;;;;;;;;;5062244;28;20044;-78
2022/09/07 12:54:34;;;;;;;0.20;0.20;;;;;;;;;;5068919;28;20044;-79
2022/09/07 12:57:19;;;;;;;0.20;0.20;;;;;;;;;;5051398;28;20040;-79
2022/09/07 13:00:02;;;;;;;0.22;0.22;;;;;;;;;;5064408;28;20390;-76
2022/09/07 13:02:33;;;;;;;0.30;0.30;;;;;;;;;;5067157;28;20076;-76
2022/09/07 13:05:14;;;;;;;0.20;0.20;;;;;;;;;;5067693;28;20040;-79
2022/09/07 13:07:50;;;;;;;0.22;0.22;;;;;;;;;;5058923;28;20032;-78
2022/09/07 13:10:23;;;;;;;0.20;0.20;;;;;;;;;;5067386;28;20144;-77
2022/09/07 13:12:51;;;;;;;0.30;0.30;;;;;;;;;;5062856;28;20127;-80
2022/09/07 13:15:34;;;;;;;0.57;0.57;;;;;;;;;;5059864;28;20091;-77
2022/09/07 13:18:02;;;;;;;0.22;0.22;;;;;;;;;;5068000;28;20050;-78
2022/09/07 13:20:30;;;;;;;0.57;0.57;;;;;;;;;;5057889;28;20066;-76
2022/09/07 13:23:08;;;;;;;1.13;1.02;;;;;;;;;;5066339;28;20088;-79
2022/09/07 13:25:37;;;;;;;0.47;0.47;;;;;;;;;;5066478;28;20083;-81
2022/09/07 13:28:05;;;;;;;0.43;0.43;;;;;;;;;;5061697;28;20071;-77
2022/09/07 13:30:31;;;;;;;0.10;0.10;;;;;;;;;;5065143;28;20095;-80
2022/09/07 13:33:15;;;;;;;0.30;0.30;;;;;;;;;;5064832;28;20085;-77
2022/09/07 13:35:44;;;;;;;0.47;0.47;;;;;;;;;;5052809;28;20044;-76
2022/09/07 13:38:11;;;;;;;0.10;0.10;;;;;;;;;;5051648;28;20067;-82
2022/09/07 13:40:41;;;;;;;0.30;0.30;;;;;;;;;;5063062;28;20042;-78
2022/09/07 13:43:13;;;;;;;0.47;0.40;;;;;;;;;;5064168;28;20166;-79
2022/09/07 13:45:48;;;;;;;0.40;0.30;;;;;;;;;;5067315;28;20501;-79
2022/09/07 13:48:18;;;;;;;0.30;0.30;;;;;;;;;;5054354;28;20067;-79